This is the latest recevied weather packets stored in our database for station/object LU8AQL-WX. If no packets are shown the sender has not sent any weather packets the latest 10 day(s).
| Time | Temp. | Humidity | Pressure | Rain* | Wind** | Luminosity | Snow |
|---|---|---|---|---|---|---|---|
| 1777649546 | 21.11° C | 68% | 1010 hPa | 0 mm | - | - | - |
| 1777648945 | 21.11° C | 69% | 1011 hPa | 0 mm | - | - | - |
| 1777648344 | 20° C | 71% | 1011 hPa | 0 mm | - | - | - |
| 1777647743 | 19.44° C | 71% | 1011 hPa | 0 mm | - | - | - |
| 1777647142 | 19.44° C | 71% | 1011 hPa | 0 mm | - | - | - |
| 1777646540 | 19.44° C | 70% | 1011 hPa | 0 mm | - | - | - |
| 1777645940 | 18.89° C | 74% | 1011 hPa | 0 mm | - | - | - |
| 1777645338 | 18.89° C | 71% | 1011 hPa | 0 mm | - | - | - |
| 1777644738 | 18.89° C | 71% | 1011 hPa | 0 mm | - | - | - |
| 1777644136 | 18.89° C | 71% | 1011 hPa | 0 mm | - | - | - |
| 1777643536 | 18.89° C | 73% | 1011 hPa | 0 mm | - | - | - |
| 1777642934 | 18.89° C | 72% | 1011 hPa | 0 mm | - | - | - |
| 1777642334 | 18.33° C | 72% | 1011 hPa | 0 mm | - | - | - |
| 1777641733 | 18.33° C | 72% | 1011 hPa | 0 mm | - | - | - |
| 1777641132 | 18.89° C | 70% | 1011 hPa | 0 mm | - | - | - |
| 1777640531 | 17.78° C | 73% | 1011 hPa | 0 mm | - | - | - |
| 1777639930 | 17.78° C | 75% | 1011 hPa | 0 mm | - | - | - |
| 1777639329 | 17.78° C | 74% | 1011 hPa | 0 mm | - | - | - |
| 1777638728 | 17.78° C | 76% | 1012 hPa | 0 mm | - | - | - |
| 1777638127 | 17.78° C | 76% | 1012 hPa | 0 mm | - | - | - |
| 1777637526 | 17.78° C | 75% | 1012 hPa | 0 mm | - | - | - |
| 1777636925 | 17.22° C | 80% | 1012 hPa | 0 mm | - | - | - |
| 1777636324 | 16.67° C | 81% | 1012 hPa | 0 mm | - | - | - |
| 1777635723 | 16.67° C | 82% | 1012 hPa | 0 mm | - | - | - |
| 1777635122 | 16.67° C | 82% | 1012 hPa | 0 mm | - | - | - |
* Rain latest hour (hover to see other rain measurements)
** Current wind speed in m/s (hover to see current wind gust speed)